Flight Track Log - Related Links

Times and Time Zones

All times are in EDT time to prevent confusion due to time zone crossing. See the SWA2436 flight status page for this flight to view local times or setup timezone preferences in your user account.

Time Position Orientation Groundspeed Altitude Reporting Facility
EDT Latitude Longitude Course Direction KTS MPH feet Rate Location/Type
Thu 08:39:52 PM 28.3319 -81.4731 270° West 278 320 38,000  Level Jacksonville Center
Thu 08:40:52 PM 28.3161 -81.5603 258° West 284 327 11,300 -12,000 Descending Jacksonville Center
Thu 08:41:52 PM 28.3153 -81.6711 270° West 316 364 14,000 2,950 Climbing Jacksonville Center
Thu 08:42:00 PM 28.4167 -81.9489 270° West  Level FlightAware Approximate
Thu 08:42:52 PM 28.3267 -81.7819 277° West 342 394 17,200  Level Jacksonville Center
Thu 08:43:00 PM 28.4167 -82.0570 270° West  Level FlightAware Approximate
Thu 08:43:52 PM 28.3611 -81.8972 289° West 368 423 19,800  Level Jacksonville Center
Thu 08:44:00 PM 28.4167 -82.1652 270° West  Level FlightAware Approximate
Thu 08:44:52 PM 28.3931 -82.0078 288° West 373 429 22,900  Level Jacksonville Center
Thu 08:45:00 PM 28.4167 -82.2733 270° West  Level FlightAware Approximate
Thu 08:45:52 PM 28.4272 -82.1161 290° West 373 429 23,100  Level Jacksonville Center
Thu 08:46:52 PM 28.4633 -82.2267 290° West 368 423 25,000 1,950 Climbing Jacksonville Center
Thu 08:47:52 PM 28.5014 -82.3397 291° West 373 429 27,000 2,150 Climbing Jacksonville Center
Thu 08:48:52 PM 28.5497 -82.4458 297° West 373 429 29,300 1,500 Climbing Jacksonville Center
Thu 08:49:52 PM 28.6419 -82.5283 322° Northwest 393 452 30,000 1,500 Climbing Jacksonville Center
Thu 08:50:52 PM 28.7236 -82.6061 320° Northwest 410 472 32,300 2,250 Climbing Jacksonville Center
Thu 08:51:52 PM 28.8092 -82.6911 319° Northwest 415 478 34,500 2,050 Climbing Jacksonville Center
Thu 08:52:52 PM 28.8969 -82.7717 321° Northwest 410 472 36,400 1,750 Climbing Jacksonville Center
Thu 08:53:52 PM 28.9806 -82.8522 320° Northwest 410 472 38,000 800 Climbing Jacksonville Center
Thu 08:54:52 PM 29.0661 -82.9306 321° Northwest 405 466 38,000  Level Jacksonville Center
Thu 08:55:52 PM 29.1475 -83.0092 320° Northwest 400 460 38,000  Level Jacksonville Center
Thu 08:56:52 PM 29.2308 -83.0900 320° Northwest 400 460 38,000  Level Jacksonville Center
Thu 08:57:52 PM 29.3206 -83.1761 320° Northwest 395 455 38,000  Level Jacksonville Center
Thu 08:58:52 PM 29.4017 -83.2550 320° Northwest 390 449 38,000  Level Jacksonville Center
Thu 08:59:52 PM 29.4828 -83.3339 320° Northwest 385 443 38,000  Level Jacksonville Center
Thu 09:00:52 PM 29.5661 -83.4108 321° Northwest 385 443 38,000  Level Jacksonville Center
Thu 09:01:52 PM 29.6450 -83.4900 319° Northwest 385 443 38,000  Level Jacksonville Center
Thu 09:02:52 PM 29.7281 -83.5647 322° Northwest 385 443 38,000 300 Level Jacksonville Center
Thu 09:03:52 PM 29.8111 -83.6489 319° Northwest 385 443 38,600 750 Climbing Jacksonville Center
Thu 09:04:52 PM 29.8942 -83.7264 321° Northwest 385 443 39,500 700 Climbing Jacksonville Center
Thu 09:05:52 PM 29.9772 -83.8086 319° Northwest 385 443 40,000 250 Climbing Jacksonville Center
Thu 09:06:52 PM 30.0622 -83.8886 321° Northwest 385 443 40,000  Level Jacksonville Center
Thu 09:07:52 PM 30.1472 -83.9711 320° Northwest 385 443 40,000  Level Jacksonville Center
Thu 09:08:52 PM 30.2278 -84.0514 319° Northwest 385 443 40,000  Level Jacksonville Center
Thu 09:09:52 PM 30.3128 -84.1342 320° Northwest 385 443 40,000  Level Jacksonville Center
Thu 09:10:52 PM 30.3850 -84.2072 319° Northwest 385 443 40,000  Level Jacksonville Center
Thu 09:11:52 PM 30.4697 -84.2881 321° Northwest 385 443 40,000  Level Jacksonville Center
Thu 09:12:52 PM 30.5606 -84.3811 319° Northwest 385 443 40,000  Level Jacksonville Center
Thu 09:13:52 PM 30.5906 -84.4853 289° West 373 429 40,000  Level Jacksonville Center
Thu 09:14:52 PM 30.6247 -84.5944 290° West 363 418 40,000  Level Jacksonville Center
Thu 09:15:52 PM 30.6608 -84.7061 291° West 363 418 40,000  Level Jacksonville Center
Thu 09:16:52 PM 30.6947 -84.8181 289° West 363 418 40,000  Level Jacksonville Center
Thu 09:17:52 PM 30.7306 -84.9297 290° West 368 423 40,000  Level Jacksonville Center
Thu 09:18:52 PM 30.7642 -85.0442 289° West 368 423 40,000  Level Jacksonville Center
Thu 09:19:52 PM 30.7933 -85.1608 286° West 368 423 40,000  Level Jacksonville Center
Thu 09:20:52 PM 30.7975 -85.2747 272° West 362 417 40,000  Level Jacksonville Center
Thu 09:21:52 PM 30.7975 -85.3858 270° West 357 411 40,000  Level Jacksonville Center
Thu 09:22:52 PM 30.8017 -85.4950 273° West 346 398 40,000  Level Jacksonville Center
Thu 09:23:52 PM 30.8033 -85.6061 271° West 346 398 40,000  Level Jacksonville Center
Thu 09:24:52 PM 30.8050 -85.7200 271° West 346 398 40,000  Level Jacksonville Center
Thu 09:25:52 PM 30.8089 -85.8314 272° West 346 398 40,000  Level Jacksonville Center
Thu 09:26:52 PM 30.8167 -85.9428 275° West 346 398 40,000  Level Jacksonville Center
Thu 09:27:52 PM 30.8494 -86.0503 290° West 346 398 40,000  Level Jacksonville Center
Thu 09:28:52 PM 30.8844 -86.1581 291° West 351 404 40,000 -350 Level Jacksonville Center
Thu 09:29:52 PM 30.9236 -86.2586 294° West 351 404 39,300 -1,000 Descending Jacksonville Center
Thu 09:30:52 PM 30.9581 -86.3664 290° West 356 410 38,000 -650 Descending Jacksonville Center
Thu 09:31:52 PM 30.9989 -86.4794 293° West 361 415 38,000  Level Jacksonville Center
Thu 09:32:52 PM 30.9978 -86.5933 269° West 354 407 38,000  Level Jacksonville Center
Thu 09:33:52 PM 30.9711 -86.7158 256° West 346 398 38,000  Level Jacksonville Center
Thu 09:34:52 PM 30.9428 -86.8258 253° West 351 404 38,000  Level Jacksonville Center
Thu 09:35:52 PM 30.9142 -86.9361 253° West 351 404 38,000  Level Jacksonville Center
Thu 09:36:52 PM 30.8856 -87.0439 253° West 356 410 38,000  Level Jacksonville Center
Thu 09:37:52 PM 30.8569 -87.1514 253° West 356 410 38,000  Level Jacksonville Center
Thu 09:38:52 PM 30.8283 -87.2614 253° West 356 410 38,000  Level Jacksonville Center
Thu 09:39:52 PM 30.8039 -87.3594 254° West 356 410 38,000  Level Jacksonville Center
Thu 09:41:27 PM 30.7597 -87.5297 253° West 359 413 38,000  Level Houston Center
Thu 09:42:29 PM 30.7300 -87.6367 252° West 352 405 38,000  Level Houston Center
Thu 09:43:30 PM 30.6967 -87.7614 253° West 347 399 38,000  Level Houston Center
Thu 09:44:31 PM 30.6681 -87.8750 254° West 354 407 38,000  Level Houston Center
Thu 09:45:33 PM 30.6392 -87.9853 253° West 356 410 38,000  Level Houston Center
Thu 09:46:34 PM 30.6094 -88.0961 253° West 358 412 38,000 -98 Level Houston Center
Thu 09:47:35 PM 30.5783 -88.2081 252° West 361 415 37,800 -590 Descending Houston Center
Thu 09:48:36 PM 30.5483 -88.3208 253° West 364 419 36,800 -934 Descending Houston Center
Thu 09:49:37 PM 30.5175 -88.4381 253° West 377 434 35,900 -1,463 Descending Houston Center
Thu 09:50:39 PM 30.4861 -88.5522 252° West 372 428 33,800 -2,049 Descending Houston Center
Thu 09:51:40 PM 30.4547 -88.6647 252° West 366 421 31,700 -2,016 Descending Houston Center
Thu 09:52:41 PM 30.4264 -88.7733 253° West 355 409 29,700 -1,967 Descending Houston Center
Thu 09:53:42 PM 30.3989 -88.8775 253° West 340 391 27,700 -2,000 Descending Houston Center
Thu 09:54:44 PM 30.3689 -88.9889 253° West 325 374 25,600 -1,951 Descending Houston Center
Thu 09:55:45 PM 30.3425 -89.0853 252° West 317 365 23,700 -1,820 Descending Houston Center
Thu 09:56:46 PM 30.3158 -89.1800 252° West 311 358 21,900 -1,820 Descending Houston Center
Thu 09:57:47 PM 30.2906 -89.2747 253° West 310 357 20,000 -1,820 Descending Houston Center
Thu 09:58:48 PM 30.2650 -89.3675 252° West 305 351 18,200 -1,947 Descending Houston Center
Thu 09:59:41 PM 30.2400 -89.4611 253° West 302 348 16,300 -1,850 Descending Houston Center
Thu 10:00:48 PM 30.2103 -89.5636 251° West 292 336 14,500 -1,688 Descending Houston Center
Thu 10:01:49 PM 30.1861 -89.6464 251° West 268 308 12,700 -1,884 Descending Houston Center
Thu 10:02:49 PM 30.1594 -89.7222 248° West 255 293 10,700 -2,083 Descending Houston Center
Thu 10:03:50 PM 30.1347 -89.7956 249° West 245 282 8,500 -2,016 Descending Houston Center
Thu 10:04:51 PM 30.1100 -89.8689 249° West 248 285 6,600 -1,689 Descending Houston Center
Thu 10:05:33 PM 30.0867 -89.9203 242° Southwest 253 291 5,600 -1,385 Descending Houston Center
Thu 10:05:56 PM 30.0733 -89.9469 240° Southwest 251 289 5,100 -689 Descending Houston Center
Thu 10:06:34 PM 30.0450 -89.9894 232° Southwest 273 314 4,900 -492 Descending Houston Center
Thu 10:06:57 PM 30.0306 -90.0183 240° Southwest 259 298 4,600 -885 Descending Houston Center
Thu 10:07:35 PM 30.0017 -90.0681 236° Southwest 270 311 4,000 -1,065 Descending Houston Center
Thu 10:07:59 PM 29.9883 -90.0897 235° Southwest 266 306 3,500 -984 Descending Houston Center
Thu 10:08:36 PM 29.9578 -90.1369 233° Southwest 262 302 3,000 -492 Descending Houston Center
Thu 10:09:00 PM 29.9464 -90.1578 238° Southwest 264 304 3,000 -197 Level Houston Center
Thu 10:09:37 PM 29.9219 -90.1936 232° Southwest 211 243 2,800 -295 Descending Houston Center
Thu 10:10:01 PM 29.9125 -90.2106 237° Southwest 222 255 2,700 -600 Descending Houston Center
Thu 10:10:37 PM 29.8944 -90.2453 239° Southwest 164 189 2,200 -787 Descending Houston Center
Thu 10:11:02 PM 29.9011 -90.2569 303° West 193 222 1,900 -982 Descending Houston Center
Thu 10:11:32 PM 29.9200 -90.2658 338° Northwest 124 143 1,300 -787 Descending Houston Center
Thu 10:12:03 PM 29.9347 -90.2686 351° North 154 177 1,100 -684 Descending Houston Center
Thu 10:12:51 PM 29.9658 -90.2567 18° North 131 151 400 -875 Descending Houston Center

Login

Don't have an account? Register now (free) for customized features, flight alerts, and more!